Time;durP1;ratioP1;P1;durP2;ratioP2;P2;SDS_P1;SDS_P2;PMS_P1;PMS_P2;Temp;Humidity;BMP_temperature;BMP_pressure;BME280_temperature;BME280_humidity;BME280_pressure;Samples;Min_cycle;Max_cycle;Signal;HPM_P1;HPM_P2
2021/03/16 00:01:28;;;;;;;22.15;12.03;;;;;;;-0.75;78.82;95805.98;1705757;83;21183;-79
2021/03/16 00:03:55;;;;;;;18.57;9.10;;;;;;;-0.75;78.92;95809.88;1682071;85;21151;-79
2021/03/16 00:06:22;;;;;;;16.32;9.13;;;;;;;-0.77;78.97;95806.72;1688663;84;21157;-79
2021/03/16 00:08:49;;;;;;;21.60;10.18;;;;;;;-0.80;79.03;95812.38;1702043;84;21281;-78
2021/03/16 00:11:16;;;;;;;43.80;23.22;;;;;;;-0.84;79.05;95808.66;1683101;85;21125;-79
2021/03/16 00:13:43;;;;;;;35.70;21.07;;;;;;;-0.86;79.25;95809.36;1671442;85;21508;-79
2021/03/16 00:16:10;;;;;;;28.60;18.45;;;;;;;-0.78;79.29;95809.05;1693935;84;21140;-79
2021/03/16 00:18:37;;;;;;;27.95;15.68;;;;;;;-0.70;79.16;95815.73;1676955;85;21186;-79
2021/03/16 00:21:05;;;;;;;37.20;17.98;;;;;;;-0.65;79.13;95815.83;1672831;85;21155;-79
2021/03/16 00:23:32;;;;;;;24.87;13.15;;;;;;;-0.69;78.88;95814.71;1691460;84;21515;-79
2021/03/16 00:25:59;;;;;;;28.70;15.35;;;;;;;-0.71;79.04;95811.52;1691821;84;21163;-79
2021/03/16 00:28:26;;;;;;;25.82;14.03;;;;;;;-0.81;79.25;95800.39;1694251;84;21526;-79
2021/03/16 00:31:11;;;;;;;25.65;14.73;;;;;;;-0.81;79.25;95800.39;1685134;84;21610;-79
2021/03/16 00:33:38;;;;;;;25.92;15.98;;;;;;;-0.71;79.39;95818.81;1685821;84;21159;-79
2021/03/16 00:36:06;;;;;;;30.25;15.60;;;;;;;-0.71;79.43;95816.21;1681870;84;21146;-79
2021/03/16 00:38:33;;;;;;;23.57;15.10;;;;;;;-0.65;79.57;95814.53;1682161;84;21168;-78
2021/03/16 00:41:00;;;;;;;25.27;13.62;;;;;;;-0.65;79.47;95815.33;1695039;83;21163;-78
2021/03/16 00:43:27;;;;;;;28.55;16.32;;;;;;;-0.64;79.27;95822.11;1696958;84;21518;-79
2021/03/16 00:45:54;;;;;;;26.75;14.65;;;;;;;-0.63;79.36;95819.78;1711956;82;21175;-79
2021/03/16 00:48:25;;;;;;;29.55;17.57;;;;;;;-0.67;79.13;95819.97;1717739;83;21551;-79
2021/03/16 00:50:52;;;;;;;25.95;16.23;;;;;;;-0.67;79.10;95820.48;1696224;84;21139;-78
2021/03/16 00:53:19;;;;;;;37.30;19.17;;;;;;;-0.67;79.16;95814.77;1691626;84;21224;-78
2021/03/16 00:56:07;;;;;;;32.33;17.35;;;;;;;-0.67;79.31;95816.06;1692851;84;21140;-78
2021/03/16 00:58:34;;;;;;;38.63;20.43;;;;;;;-0.66;79.16;95815.55;1696636;84;21127;-79
2021/03/16 01:01:04;;;;;;;31.65;19.90;;;;;;;-0.67;79.31;95812.67;1685330;84;21187;-79
2021/03/16 01:03:31;;;;;;;31.80;19.60;;;;;;;-0.67;79.16;95812.16;1695336;84;21177;-79
2021/03/16 01:05:58;;;;;;;36.13;19.70;;;;;;;-0.74;79.24;95814.06;1689312;84;21169;-79
2021/03/16 01:08:25;;;;;;;33.18;19.45;;;;;;;-0.78;79.36;95812.16;1690956;84;21512;-79
2021/03/16 01:10:54;;;;;;;32.33;19.75;;;;;;;-0.82;79.61;95802.71;1719846;82;21136;-79
2021/03/16 01:13:23;;;;;;;38.25;21.35;;;;;;;-0.77;79.89;95805.93;1720372;82;21156;-79
2021/03/16 01:15:50;;;;;;;34.00;19.77;;;;;;;-0.75;80.01;95802.08;1716384;83;21580;-79
2021/03/16 01:18:18;;;;;;;37.88;20.12;;;;;;;-0.71;79.71;95805.80;1711732;82;21123;-79
2021/03/16 01:20:45;;;;;;;35.95;18.32;;;;;;;-0.69;79.44;95803.79;1714708;82;21165;-79
2021/03/16 01:23:13;;;;;;;30.15;15.90;;;;;;;-0.69;79.25;95816.80;1709914;82;21166;-79
2021/03/16 01:25:40;;;;;;;40.10;22.73;;;;;;;-0.69;79.18;95808.99;1714111;83;21156;-79
2021/03/16 01:28:07;;;;;;;36.35;20.95;;;;;;;-0.73;79.32;95810.45;1716737;83;21107;-79
2021/03/16 01:30:34;;;;;;;40.78;23.75;;;;;;;-0.77;79.66;95804.12;1719557;83;21133;-78
2021/03/16 01:33:01;;;;;;;37.28;22.77;;;;;;;-0.76;79.95;95803.09;1733816;81;21502;-79
2021/03/16 01:35:28;;;;;;;42.45;23.25;;;;;;;-0.76;80.02;95808.30;1736471;81;21253;-79
2021/03/16 01:37:58;;;;;;;42.60;24.65;;;;;;;-0.82;80.01;95800.63;1750815;81;21617;-79
2021/03/16 01:40:39;;;;;;;37.10;24.25;;;;;;;-0.81;80.04;95797.79;1711656;83;21147;-79
2021/03/16 01:43:13;;;;;;;44.85;25.52;;;;;;;-0.77;80.03;95802.81;1751311;81;21115;-79
2021/03/16 01:45:43;;;;;;;43.38;25.82;;;;;;;-0.75;79.93;95807.80;1741845;81;21161;-79
2021/03/16 01:48:13;;;;;;;41.10;22.30;;;;;;;-0.74;79.81;95805.47;1753894;81;21131;-79
2021/03/16 01:50:41;;;;;;;48.80;27.77;;;;;;;-0.78;80.11;95804.34;1756960;81;21297;-79
2021/03/16 01:53:09;;;;;;;46.23;25.92;;;;;;;-0.82;80.17;95798.81;1717022;83;21146;-79
2021/03/16 01:55:37;;;;;;;36.90;24.43;;;;;;;-0.84;80.25;95803.96;1752552;81;21544;-79
2021/03/16 01:58:04;;;;;;;41.65;24.35;;;;;;;-0.86;80.11;95804.16;1741442;81;21135;-79
2021/03/16 02:00:36;;;;;;;40.03;24.65;;;;;;;-0.90;80.16;95805.12;1742457;81;21154;-79
2021/03/16 02:03:06;;;;;;;31.87;20.70;;;;;;;-0.87;80.10;95802.58;1737661;81;21141;-79
2021/03/16 02:05:34;;;;;;;39.05;22.65;;;;;;;-0.89;80.18;95800.72;1749448;81;21088;-79
2021/03/16 02:08:35;;;;;;;40.48;24.35;;;;;;;-0.84;80.21;95806.56;1745138;81;21114;-79
2021/03/16 02:11:38;;;;;;;43.10;23.98;;;;;;;-0.85;80.08;95795.84;1738385;81;21507;-79
2021/03/16 02:14:30;;;;;;;43.28;26.70;;;;;;;-0.86;79.92;95801.56;1742273;81;21139;-79
2021/03/16 02:17:17;;;;;;;39.73;24.30;;;;;;;-0.91;79.92;95802.75;1744813;81;21105;-79
2021/03/16 02:20:01;;;;;;;42.23;24.25;;;;;;;-0.97;79.92;95810.17;1738433;81;21275;-79
2021/03/16 02:22:31;;;;;;;43.52;24.40;;;;;;;-1.04;79.97;95806.87;1703255;83;21488;-79
2021/03/16 02:25:16;;;;;;;42.70;24.12;;;;;;;-1.00;80.12;95810.59;1713477;82;21471;-79
2021/03/16 02:28:15;;;;;;;41.08;24.70;;;;;;;-0.98;80.16;95811.19;1712376;83;21136;-79
2021/03/16 02:30:45;;;;;;;41.13;24.10;;;;;;;-0.92;80.35;95810.28;1708882;83;21157;-79
2021/03/16 02:33:16;;;;;;;49.10;27.17;;;;;;;-0.94;80.26;95809.72;1713231;83;21147;-79
2021/03/16 02:35:48;;;;;;;41.40;24.87;;;;;;;-0.95;80.29;95811.52;1697060;83;21140;-79
2021/03/16 02:38:25;;;;;;;44.18;24.85;;;;;;;-0.92;80.37;95811.07;1758043;81;21127;-79
2021/03/16 02:40:53;;;;;;;45.25;27.48;;;;;;;-0.95;80.56;95802.42;1746897;81;21479;-79
2021/03/16 02:43:22;;;;;;;43.33;26.62;;;;;;;-0.89;80.75;95816.33;1743548;81;21114;-79
2021/03/16 02:45:51;;;;;;;44.80;26.80;;;;;;;-0.92;80.71;95808.47;1718963;83;21172;-79
2021/03/16 02:48:20;;;;;;;39.45;23.55;;;;;;;-0.93;80.79;95812.59;1755197;81;21090;-79
2021/03/16 02:50:48;;;;;;;43.23;27.13;;;;;;;-0.95;80.65;95814.13;1722004;81;21139;-79
2021/03/16 02:53:17;;;;;;;46.98;26.87;;;;;;;-0.95;80.58;95810.22;1745198;81;21498;-79
2021/03/16 02:55:45;;;;;;;40.90;25.05;;;;;;;-0.95;80.48;95810.22;1739211;81;21111;-79
2021/03/16 02:58:14;;;;;;;41.33;24.45;;;;;;;-0.94;80.67;95813.11;1755681;81;21509;-79
2021/03/16 03:00:42;;;;;;;41.30;25.88;;;;;;;-0.94;80.93;95817.52;1744494;81;21140;-79
2021/03/16 03:03:11;;;;;;;42.58;25.05;;;;;;;-0.94;81.04;95816.22;1756019;81;21265;-79
2021/03/16 03:05:42;;;;;;;42.45;27.42;;;;;;;-0.97;81.14;95814.86;1742025;81;21172;-79
2021/03/16 03:08:11;;;;;;;46.35;27.85;;;;;;;-1.04;80.87;95815.97;1752524;81;21153;-79
2021/03/16 03:10:38;;;;;;;48.63;29.18;;;;;;;-1.09;81.12;95813.27;1756930;81;21123;-79
2021/03/16 03:13:06;;;;;;;52.95;30.50;;;;;;;-1.08;81.34;95817.45;1749390;81;21526;-79
2021/03/16 03:15:33;;;;;;;47.73;28.12;;;;;;;-1.08;81.19;95820.05;1688311;84;21136;-79
2021/03/16 03:18:01;;;;;;;47.95;27.42;;;;;;;-1.12;80.96;95825.42;1757791;81;21092;-79
2021/03/16 03:20:28;;;;;;;46.23;24.85;;;;;;;-1.10;80.96;95828.08;1746030;81;21134;-79
2021/03/16 03:23:12;;;;;;;35.55;21.40;;;;;;;-1.09;81.34;95828.87;1738504;81;21282;-78
2021/03/16 03:25:44;;;;;;;45.73;25.68;;;;;;;-1.06;81.52;95829.20;1726446;82;21189;-79
2021/03/16 03:28:27;;;;;;;39.08;24.12;;;;;;;-1.05;81.37;95831.30;1681750;85;21157;-79
2021/03/16 03:31:01;;;;;;;42.50;24.05;;;;;;;-1.10;81.45;95837.18;1697822;84;21492;-79
2021/03/16 03:33:31;;;;;;;36.93;21.15;;;;;;;-1.06;81.79;95828.41;1709870;84;21164;-79
2021/03/16 03:36:02;;;;;;;42.83;25.35;;;;;;;-1.03;81.73;95843.06;1708496;84;21523;-79
2021/03/16 03:38:31;;;;;;;45.92;26.05;;;;;;;-1.00;81.60;95835.31;1699217;84;21131;-79
2021/03/16 03:41:03;;;;;;;43.68;26.50;;;;;;;-0.98;81.48;95830.70;1689946;84;21220;-79
2021/03/16 03:43:34;;;;;;;41.88;25.62;;;;;;;-1.00;81.29;95833.50;1708045;84;21096;-79
2021/03/16 03:46:02;;;;;;;42.95;24.10;;;;;;;-0.98;81.22;95834.60;1671425;85;21146;-79
2021/03/16 03:48:31;;;;;;;39.25;23.05;;;;;;;-0.98;81.04;95837.20;1695629;84;21131;-79
2021/03/16 03:51:02;;;;;;;43.65;25.90;;;;;;;-0.99;81.02;95844.70;1690334;84;21123;-79
2021/03/16 03:53:30;;;;;;;;;;;;;;;-0.99;81.05;95844.70;1717966;82;21119;-79
2021/03/16 03:55:58;;;;;;;44.73;25.30;;;;;;;-0.98;81.16;95845.01;1695010;84;20134;-79
2021/03/16 03:58:26;;;;;;;46.90;26.02;;;;;;;-0.97;81.11;95846.08;1698517;84;21204;-79
2021/03/16 04:00:54;;;;;;;36.85;22.07;;;;;;;-0.98;81.09;95856.20;1700061;84;21165;-79
2021/03/16 04:03:21;;;;;;;43.15;25.02;;;;;;;-1.02;81.29;95857.65;1689088;84;21554;-79
2021/03/16 04:05:51;;;;;;;39.60;25.62;;;;;;;-1.04;81.53;95859.69;1707528;83;21128;-79
2021/03/16 04:08:18;;;;;;;42.73;25.77;;;;;;;-1.06;81.38;95864.83;1699736;84;21154;-79
2021/03/16 04:10:45;;;;;;;44.05;23.57;;;;;;;-1.08;81.59;95870.25;1704217;83;21696;-79
2021/03/16 04:13:12;;;;;;;47.40;26.48;;;;;;;-1.15;81.94;95867.45;1692418;84;21197;-79
2021/03/16 04:15:40;;;;;;;42.70;25.95;;;;;;;-1.24;82.00;95865.70;1697465;84;21136;-79
2021/03/16 04:18:10;;;;;;;44.90;23.95;;;;;;;-1.28;82.25;95870.52;1702732;84;21131;-79
2021/03/16 04:20:37;;;;;;;33.02;19.85;;;;;;;-1.30;82.31;95867.36;1700138;84;21298;-79
2021/03/16 04:23:05;;;;;;;40.33;26.37;;;;;;;-1.29;82.61;95870.23;1701104;84;21152;-79
2021/03/16 04:25:32;;;;;;;46.83;28.67;;;;;;;-1.31;82.40;95856.67;1689510;84;21567;-79
2021/03/16 04:27:59;;;;;;;39.53;23.92;;;;;;;-1.29;82.51;95861.65;1683097;85;21302;-79
2021/03/16 04:30:26;;;;;;;36.73;21.77;;;;;;;-1.27;82.44;95869.53;1694157;84;21484;-79
2021/03/16 04:32:53;;;;;;;37.50;22.90;;;;;;;-1.30;82.20;95869.95;1689513;84;21280;-79
2021/03/16 04:35:20;;;;;;;36.93;23.57;;;;;;;-1.30;82.20;95869.95;1706238;84;21146;-79
2021/03/16 04:37:47;;;;;;;40.90;25.92;;;;;;;-1.28;82.24;95874.42;1700817;84;21152;-79
2021/03/16 04:40:16;;;;;;;36.17;22.70;;;;;;;-1.25;82.69;95874.52;1674546;85;21154;-79
2021/03/16 04:42:43;;;;;;;37.38;24.35;;;;;;;-1.24;82.81;95878.19;1693024;83;21599;-79
2021/03/16 04:45:13;;;;;;;47.78;27.73;;;;;;;-1.26;82.69;95881.52;1691597;84;21230;-79
2021/03/16 04:47:40;;;;;;;35.80;22.60;;;;;;;-1.24;82.51;95880.00;1698983;84;21131;-79
2021/03/16 04:50:09;;;;;;;47.20;22.58;;;;;;;-1.27;82.64;95882.54;1693979;84;21445;-79
2021/03/16 04:52:36;;;;;;;42.17;26.35;;;;;;;-1.24;82.56;95881.30;1691965;84;21195;-79
2021/03/16 04:55:04;;;;;;;44.80;25.10;;;;;;;-1.27;82.34;95882.54;1698198;84;21135;-79
2021/03/16 04:57:31;;;;;;;38.50;20.97;;;;;;;-1.28;82.31;95879.63;1711919;84;21153;-79
2021/03/16 04:59:58;;;;;;;34.50;20.23;;;;;;;-1.25;82.42;95880.51;1696257;84;21498;-79
2021/03/16 05:02:26;;;;;;;34.43;20.95;;;;;;;-1.22;82.50;95881.87;1706486;83;21595;-79
2021/03/16 05:04:53;;;;;;;38.02;22.35;;;;;;;-1.23;82.27;95882.38;1696426;84;21492;-79
2021/03/16 05:07:20;;;;;;;38.48;23.47;;;;;;;-1.21;82.20;95883.45;1687665;84;21185;-79
2021/03/16 05:09:48;;;;;;;36.05;21.15;;;;;;;-1.21;82.18;95881.64;1673436;85;21530;-79
2021/03/16 05:12:16;;;;;;;35.10;21.37;;;;;;;-1.13;82.16;95890.92;1676353;85;21530;-79
2021/03/16 05:14:46;;;;;;;38.95;24.23;;;;;;;-1.07;82.08;95893.16;1673840;85;21538;-79
2021/03/16 05:17:13;;;;;;;41.35;24.00;;;;;;;-1.02;82.02;95893.27;1680687;85;21200;-79
2021/03/16 05:19:41;;;;;;;37.73;23.42;;;;;;;-0.92;82.04;95894.32;1665762;85;21173;-79
2021/03/16 05:22:09;;;;;;;41.40;24.55;;;;;;;-0.78;81.95;95896.22;1664002;85;21563;-79
2021/03/16 05:24:38;;;;;;;36.08;21.93;;;;;;;-0.61;81.97;95898.95;1704976;83;21131;-79
2021/03/16 05:27:07;;;;;;;42.62;25.92;;;;;;;-0.46;81.85;95884.19;1715967;83;21181;-79
2021/03/16 05:29:34;;;;;;;42.13;25.40;;;;;;;-0.33;81.60;95894.38;1724107;82;21162;-79
2021/03/16 05:32:01;;;;;;;36.83;23.30;;;;;;;-0.20;81.53;95890.23;1742260;81;21111;-79
2021/03/16 05:34:29;;;;;;;43.78;24.77;;;;;;;0.08;81.33;95892.13;1750495;81;21120;-79
2021/03/16 05:36:56;;;;;;;33.10;22.15;;;;;;;0.79;80.67;95899.23;1756650;81;21160;-79
2021/03/16 05:39:23;;;;;;;37.08;24.35;;;;;;;0.79;80.67;95899.23;1716728;83;21342;-79
2021/03/16 05:41:52;;;;;;;39.15;23.40;;;;;;;1.27;80.07;95896.64;1691937;82;21170;-79
2021/03/16 05:44:19;;;;;;;36.08;23.60;;;;;;;1.73;79.38;95897.64;1707362;83;21162;-79
2021/03/16 05:46:47;;;;;;;37.85;23.18;;;;;;;2.13;78.50;95901.85;1717361;83;21123;-79
2021/03/16 05:49:17;;;;;;;35.15;23.15;;;;;;;2.46;77.57;95910.62;1703674;83;21231;-79
2021/03/16 05:51:44;;;;;;;33.97;22.40;;;;;;;2.74;76.87;95906.49;1716838;83;21130;-79
2021/03/16 05:54:13;;;;;;;30.70;19.23;;;;;;;3.02;75.91;95903.38;1732832;82;21119;-79
2021/03/16 05:56:40;;;;;;;33.67;22.40;;;;;;;3.25;75.10;95909.63;1732973;82;21540;-79
2021/03/16 05:59:09;;;;;;;29.12;20.85;;;;;;;3.02;74.44;95908.61;1751896;81;21509;-79
2021/03/16 06:01:36;;;;;;;32.53;22.25;;;;;;;2.86;74.50;95912.38;1717279;83;21511;-79
2021/03/16 06:04:04;;;;;;;32.60;22.35;;;;;;;2.71;74.19;95906.98;1715464;83;21154;-79
2021/03/16 06:06:32;;;;;;;36.85;23.32;;;;;;;2.70;74.37;95919.80;1716559;83;21143;-79
2021/03/16 06:08:59;;;;;;;34.85;23.40;;;;;;;2.92;74.78;95911.39;1704597;83;21135;-79
2021/03/16 06:11:26;;;;;;;30.12;21.95;;;;;;;3.35;74.72;95911.00;1713936;82;21228;-79
2021/03/16 06:13:56;;;;;;;30.40;20.85;;;;;;;3.44;73.32;95910.82;1700840;83;21525;-79
2021/03/16 06:16:24;;;;;;;27.22;18.52;;;;;;;3.43;73.18;95917.10;1741384;81;21196;-79
2021/03/16 06:18:52;;;;;;;35.15;23.85;;;;;;;3.32;72.46;95921.19;1749316;81;21281;-79
2021/03/16 06:21:23;;;;;;;33.67;21.57;;;;;;;2.98;72.29;95919.58;1752595;81;21108;-80
2021/03/16 06:23:57;;;;;;;35.43;22.13;;;;;;;2.80;72.67;95923.03;1717422;83;21127;-80
2021/03/16 06:26:32;;;;;;;41.65;24.15;;;;;;;2.65;72.40;95934.91;1686870;83;21185;-80
2021/03/16 06:29:11;;;;;;;33.92;22.30;;;;;;;2.60;73.06;95932.24;1678010;84;21139;-79
2021/03/16 06:31:38;;;;;;;28.62;21.15;;;;;;;2.71;73.12;95932.37;1735306;82;21555;-79
2021/03/16 06:34:06;;;;;;;33.67;23.45;;;;;;;2.76;72.98;95936.34;1725751;83;21156;-79
2021/03/16 06:36:35;;;;;;;34.53;21.65;;;;;;;2.87;73.00;95936.22;1725292;81;21467;-79
2021/03/16 06:39:04;;;;;;;32.15;21.40;;;;;;;3.18;72.93;95936.52;1718698;83;21528;-79
2021/03/16 06:41:36;;;;;;;36.33;24.52;;;;;;;3.25;72.25;95933.19;1730071;82;21169;-79
2021/03/16 06:44:06;;;;;;;31.23;22.22;;;;;;;3.29;71.88;95930.34;1721833;82;21144;-79
2021/03/16 06:46:38;;;;;;;37.48;25.55;;;;;;;3.38;71.56;95945.07;1723552;83;21299;-79
2021/03/16 06:49:18;;;;;;;34.58;22.50;;;;;;;3.75;71.52;95939.88;1711408;83;21151;-79
2021/03/16 06:51:46;;;;;;;38.42;25.23;;;;;;;4.11;71.92;95940.92;1705998;83;21151;-77
2021/03/16 06:54:18;;;;;;;34.35;23.10;;;;;;;5.22;72.13;95937.17;1733859;82;21180;-77
2021/03/16 06:57:01;;;;;;;43.68;27.95;;;;;;;5.77;71.11;95936.92;1730029;82;21504;-77
2021/03/16 06:59:32;;;;;;;39.60;26.20;;;;;;;5.96;69.66;95939.33;1713457;82;21184;-78
2021/03/16 07:02:04;;;;;;;46.98;29.00;;;;;;;6.32;68.55;95939.25;1704189;83;21168;-78
2021/03/16 07:04:33;;;;;;;42.38;27.30;;;;;;;6.22;67.68;95946.66;1721863;82;21145;-78
2021/03/16 07:07:03;;;;;;;41.35;26.90;;;;;;;6.40;66.83;95945.30;1734760;82;21136;-78
2021/03/16 07:09:32;;;;;;;44.23;29.32;;;;;;;6.42;66.86;95947.92;1717257;83;21530;-78
2021/03/16 07:12:02;;;;;;;42.17;27.22;;;;;;;6.28;65.98;95946.11;1722074;83;21119;-78
2021/03/16 07:14:32;;;;;;;38.23;26.75;;;;;;;6.68;66.72;95948.63;1689576;83;21702;-78
2021/03/16 07:17:03;;;;;;;36.90;26.77;;;;;;;6.84;65.48;95951.98;1733109;82;21485;-79
2021/03/16 07:19:32;;;;;;;44.77;28.67;;;;;;;7.66;66.26;95953.10;1727418;83;21191;-79
2021/03/16 07:22:03;;;;;;;37.63;27.63;;;;;;;9.15;65.92;95956.64;1722443;82;21304;-79
2021/03/16 07:24:32;;;;;;;36.20;25.88;;;;;;;10.23;63.51;95953.96;1722446;83;21858;-79
2021/03/16 07:27:01;;;;;;;39.27;26.87;;;;;;;10.57;57.96;95950.20;1732417;81;21277;-79
2021/03/16 07:29:30;;;;;;;36.53;25.97;;;;;;;9.63;57.71;95957.03;1747188;81;21151;-79
2021/03/16 07:31:59;;;;;;;36.30;26.30;;;;;;;10.11;57.37;95957.03;1733140;81;21135;-79
2021/03/16 07:34:28;;;;;;;36.03;24.45;;;;;;;9.43;58.40;95958.09;1745095;81;21084;-79
2021/03/16 07:36:57;;;;;;;37.58;27.00;;;;;;;8.82;58.37;95967.61;1727084;81;21108;-79
2021/03/16 07:39:26;;;;;;;36.88;24.40;;;;;;;7.98;57.11;95965.77;1737433;81;21714;-79
2021/03/16 07:41:55;;;;;;;37.53;22.65;;;;;;;7.80;59.91;95969.09;1717024;83;21512;-79
2021/03/16 07:44:23;;;;;;;30.75;20.55;;;;;;;8.08;59.91;95970.72;1738373;81;21127;-79
2021/03/16 07:46:59;;;;;;;37.53;23.45;;;;;;;7.96;57.99;95969.22;1708779;83;21153;-79
2021/03/16 07:49:38;;;;;;;26.93;17.95;;;;;;;7.65;59.27;95977.91;1734497;81;21171;-79
2021/03/16 07:52:23;;;;;;;32.38;22.67;;;;;;;7.38;57.61;95970.96;1721577;83;21163;-79
2021/03/16 07:54:53;;;;;;;36.08;21.65;;;;;;;6.64;58.28;95977.10;1730304;81;21467;-79
2021/03/16 07:57:35;;;;;;;36.40;24.25;;;;;;;6.11;57.93;95976.14;1737452;81;21498;-79
2021/03/16 08:00:07;;;;;;;43.23;25.08;;;;;;;5.64;58.65;95978.49;1736773;81;21249;-79
2021/03/16 08:02:38;;;;;;;42.23;26.87;;;;;;;5.34;58.86;95977.11;1692851;84;21161;-79
2021/03/16 08:05:19;;;;;;;42.10;24.02;;;;;;;5.11;59.85;95988.90;1734903;81;21108;-79
2021/03/16 08:07:48;;;;;;;37.50;23.65;;;;;;;4.95;59.93;95992.52;1744127;81;21188;-79
2021/03/16 08:10:31;;;;;;;41.48;25.48;;;;;;;4.72;60.36;95997.14;1746102;81;21168;-79
2021/03/16 08:13:03;;;;;;;39.27;27.27;;;;;;;4.45;60.63;95994.64;1712069;83;21137;-79
2021/03/16 08:15:46;;;;;;;44.40;28.12;;;;;;;4.21;61.23;95996.58;1744540;81;21108;-79
2021/03/16 08:18:26;;;;;;;46.35;26.55;;;;;;;4.09;62.03;95996.27;1744818;81;21465;-79
2021/03/16 08:21:10;;;;;;;48.05;26.85;;;;;;;4.09;62.24;96000.20;1744961;81;21483;-79
2021/03/16 08:23:39;;;;;;;50.33;28.65;;;;;;;4.15;62.82;96006.26;1719650;83;21112;-79
2021/03/16 08:26:08;;;;;;;48.80;29.20;;;;;;;4.20;63.08;96015.98;1753485;81;21146;-79
2021/03/16 08:28:36;;;;;;;45.08;26.77;;;;;;;4.15;62.99;96016.23;1759831;81;21563;-79
2021/03/16 08:31:04;;;;;;;35.98;21.40;;;;;;;4.02;63.36;96021.91;1729825;81;21493;-79
2021/03/16 08:33:31;;;;;;;34.10;22.07;;;;;;;3.84;64.46;96018.36;1722267;81;21119;-79
2021/03/16 08:36:01;;;;;;;32.40;19.57;;;;;;;3.65;65.24;96021.84;1748000;81;21115;-79
2021/03/16 08:38:32;;;;;;;23.25;14.15;;;;;;;3.56;66.21;96019.41;1738912;81;21111;-79
2021/03/16 08:41:16;;;;;;;26.55;15.93;;;;;;;3.50;66.84;96023.01;1742626;81;21531;-79
2021/03/16 08:43:52;;;;;;;25.48;13.72;;;;;;;3.48;67.30;96018.53;1737703;81;21116;-79
2021/03/16 08:46:35;;;;;;;27.70;15.45;;;;;;;3.45;67.50;96018.52;1739708;81;21490;-79
2021/03/16 08:49:03;;;;;;;33.30;17.25;;;;;;;3.35;68.18;96019.72;1720443;82;21138;-79
2021/03/16 08:51:33;;;;;;;32.75;18.73;;;;;;;3.36;68.57;96028.36;1751584;81;21127;-79
2021/03/16 08:54:01;;;;;;;33.20;21.47;;;;;;;3.43;68.62;96027.15;1734503;81;21213;-79
2021/03/16 08:56:29;;;;;;;25.72;17.07;;;;;;;3.42;68.92;96027.40;1710338;83;21170;-79
2021/03/16 08:59:05;;;;;;;33.78;20.95;;;;;;;3.37;69.01;96030.73;1747157;81;21495;-79
2021/03/16 09:01:35;;;;;;;34.33;21.33;;;;;;;3.33;69.43;96036.72;1745977;81;21171;-79
2021/03/16 09:04:12;;;;;;;28.62;17.87;;;;;;;3.34;69.52;96031.23;1743297;81;21144;-79
2021/03/16 09:06:41;;;;;;;31.12;19.45;;;;;;;3.36;70.06;96040.95;1735937;81;21175;-79
2021/03/16 09:09:11;;;;;;;32.38;19.67;;;;;;;3.35;70.18;96024.17;1747320;81;21146;-79
2021/03/16 09:11:42;;;;;;;;;;;;;;;3.38;70.55;96032.84;1756719;81;21155;-79
2021/03/16 09:14:17;;;;;;;27.70;17.42;;;;;;;3.36;70.68;96012.13;1743611;81;20134;-79
2021/03/16 09:16:51;;;;;;;30.37;17.40;;;;;;;3.33;70.94;96022.31;1759311;81;21142;-79
2021/03/16 09:19:28;;;;;;;28.42;18.10;;;;;;;3.28;71.03;96037.47;1737490;81;21092;-79
2021/03/16 09:22:01;;;;;;;26.93;16.10;;;;;;;3.30;70.93;96043.25;1720823;83;21167;-79
2021/03/16 09:24:33;;;;;;;29.87;17.62;;;;;;;3.33;70.90;96035.41;1750273;81;21084;-79
2021/03/16 09:27:06;;;;;;;25.77;15.43;;;;;;;3.30;70.90;96031.47;1758897;81;21524;-79
2021/03/16 09:29:37;;;;;;;34.88;21.15;;;;;;;3.22;71.35;96036.61;1741688;81;21151;-79
2021/03/16 09:32:10;;;;;;;34.00;22.13;;;;;;;3.20;71.77;96036.58;1730752;81;21120;-79
2021/03/16 09:34:40;;;;;;;36.23;23.07;;;;;;;3.27;71.63;96035.89;1750902;81;21115;-79
2021/03/16 09:37:12;;;;;;;28.80;17.55;;;;;;;3.31;71.79;96051.91;1718560;82;21164;-79
2021/03/16 09:39:43;;;;;;;35.03;22.67;;;;;;;3.36;71.59;96044.87;1688377;84;21097;-79
2021/03/16 09:42:11;;;;;;;38.63;22.42;;;;;;;3.41;71.67;96048.88;1713977;83;21526;-79
2021/03/16 09:44:43;;;;;;;33.53;20.45;;;;;;;3.45;71.28;96049.17;1714917;83;21128;-79
2021/03/16 09:47:12;;;;;;;39.53;25.02;;;;;;;3.52;71.54;96053.19;1705564;84;21261;-79
2021/03/16 09:49:42;;;;;;;34.88;19.73;;;;;;;3.50;71.61;96056.55;1701388;84;21191;-79
2021/03/16 09:52:12;;;;;;;41.30;26.02;;;;;;;3.64;71.79;96053.55;1703752;84;21308;-79
2021/03/16 09:54:46;;;;;;;35.92;23.90;;;;;;;3.72;71.61;96055.73;1692262;84;21182;-79
2021/03/16 09:57:17;;;;;;;39.08;25.15;;;;;;;3.79;71.37;96053.69;1668339;84;21128;-79
2021/03/16 09:59:47;;;;;;;37.17;23.05;;;;;;;3.86;70.95;96059.53;1711802;82;21491;-79
2021/03/16 10:02:14;;;;;;;37.60;23.20;;;;;;;3.95;70.82;96054.64;1697308;83;21665;-79
2021/03/16 10:04:51;;;;;;;30.12;19.05;;;;;;;3.92;70.64;96055.11;1681938;84;21548;-79
2021/03/16 10:07:30;;;;;;;32.58;20.82;;;;;;;3.90;70.37;96060.61;1685625;84;21468;-79
2021/03/16 10:10:14;;;;;;;32.90;20.90;;;;;;;3.82;70.32;96061.08;1701146;82;21492;-79
2021/03/16 10:13:04;;;;;;;35.70;22.80;;;;;;;3.87;70.20;96057.18;1692050;84;21535;-79
2021/03/16 10:15:42;;;;;;;34.38;22.62;;;;;;;3.95;70.22;96059.87;1695760;84;21119;-79
2021/03/16 10:18:15;;;;;;;26.45;16.42;;;;;;;4.08;70.55;96058.95;1706337;83;21107;-79
2021/03/16 10:20:47;;;;;;;24.27;15.78;;;;;;;4.24;69.33;96050.67;1692113;84;21449;-79
2021/03/16 10:23:21;;;;;;;24.75;16.50;;;;;;;4.17;68.86;96059.27;1714935;83;21449;-79
2021/03/16 10:25:58;;;;;;;24.32;16.45;;;;;;;4.19;68.74;96058.48;1704761;84;21309;-79
2021/03/16 10:28:44;;;;;;;28.80;16.15;;;;;;;4.29;68.93;96058.57;1693028;84;21347;-79
2021/03/16 10:31:26;;;;;;;29.30;18.62;;;;;;;4.42;69.12;96059.45;1710944;84;21179;-79
2021/03/16 10:33:56;;;;;;;27.20;17.10;;;;;;;4.46;69.05;96054.48;1693074;84;21495;-80
2021/03/16 10:36:24;;;;;;;29.30;19.27;;;;;;;4.42;68.40;96060.77;1718675;82;21138;-80
2021/03/16 10:38:52;;;;;;;30.70;17.25;;;;;;;4.48;68.84;96056.33;1711157;84;21147;-80
2021/03/16 10:41:21;;;;;;;26.50;18.32;;;;;;;4.54;68.73;96061.90;1747291;81;21131;-80
2021/03/16 10:43:49;;;;;;;27.87;16.52;;;;;;;4.59;68.73;96063.23;1746892;81;21158;-78
2021/03/16 10:46:16;;;;;;;24.63;15.88;;;;;;;4.65;68.28;96071.95;1738920;81;21175;-77
2021/03/16 10:48:43;;;;;;;33.48;21.65;;;;;;;4.62;67.94;96061.41;1751942;81;21463;-77
2021/03/16 10:51:11;;;;;;;27.75;19.12;;;;;;;4.63;68.20;96070.86;1719867;82;21542;-77
2021/03/16 10:53:38;;;;;;;29.52;18.27;;;;;;;4.75;67.92;96069.36;1720268;82;21130;-77
2021/03/16 10:56:07;;;;;;;33.00;21.07;;;;;;;4.95;68.11;96067.38;1712916;82;21480;-77
2021/03/16 10:58:35;;;;;;;35.45;21.75;;;;;;;5.03;67.85;96069.50;1684849;84;21154;-77
2021/03/16 11:01:03;;;;;;;30.80;19.80;;;;;;;4.98;67.44;96062.92;1702642;82;21187;-77
2021/03/16 11:03:33;;;;;;;28.80;18.32;;;;;;;4.86;66.78;96066.27;1684837;84;21522;-77
2021/03/16 11:06:00;;;;;;;;;;;;;;;4.76;67.09;96069.10;1687256;84;21270;-79
2021/03/16 11:08:28;;;;;;;33.67;20.27;;;;;;;4.95;67.24;96051.63;1684560;84;20352;-79
2021/03/16 11:10:55;;;;;;;26.85;18.65;;;;;;;5.09;66.67;96060.62;1685143;84;21155;-79
2021/03/16 11:13:23;;;;;;;27.75;19.85;;;;;;;5.29;67.10;96060.69;1698261;84;21171;-79
2021/03/16 11:15:50;;;;;;;32.15;22.40;;;;;;;5.32;65.66;96060.16;1698433;84;21113;-79
2021/03/16 11:18:18;;;;;;;34.03;20.57;;;;;;;5.20;66.04;96060.91;1708936;83;21164;-79
2021/03/16 11:20:46;;;;;;;30.77;17.67;;;;;;;5.36;66.68;96059.14;1685320;84;21212;-80
2021/03/16 11:23:13;;;;;;;27.37;17.37;;;;;;;5.43;65.28;96051.80;1684796;84;21127;-79
2021/03/16 11:25:40;;;;;;;28.25;16.87;;;;;;;5.25;65.04;96054.38;1685786;83;21333;-79
2021/03/16 11:28:08;;;;;;;30.90;18.65;;;;;;;5.25;65.19;96051.74;1696291;83;21308;-79
2021/03/16 11:30:35;;;;;;;24.37;16.20;;;;;;;5.51;65.35;96050.52;1701814;83;21130;-79
2021/03/16 11:33:06;;;;;;;21.57;14.38;;;;;;;5.65;65.00;96048.97;1707357;82;21169;-79
2021/03/16 11:35:34;;;;;;;24.10;16.67;;;;;;;5.78;63.00;96041.89;1704511;82;21141;-79
2021/03/16 11:38:02;;;;;;;29.25;17.20;;;;;;;6.12;65.00;96041.41;1718151;82;21483;-79